sensor_id;sensor_type;location;lat;lon;timestamp;pressure;altitude;pressure_sealevel;temperature;humidity
35553;BME280;21656;46.054;13.614;2022-10-16T00:01:24;101095.41;;;12.04;100.00
35553;BME280;21656;46.054;13.614;2022-10-16T00:03:50;101092.63;;;12.17;100.00
35553;BME280;21656;46.054;13.614;2022-10-16T00:06:18;101096.00;;;12.32;100.00
35553;BME280;21656;46.054;13.614;2022-10-16T00:08:43;101095.53;;;12.49;100.00
35553;BME280;21656;46.054;13.614;2022-10-16T00:11:20;101099.50;;;12.56;100.00
35553;BME280;21656;46.054;13.614;2022-10-16T00:13:48;101096.19;;;12.18;100.00
35553;BME280;21656;46.054;13.614;2022-10-16T00:16:14;101094.66;;;12.02;100.00
35553;BME280;21656;46.054;13.614;2022-10-16T00:18:40;101099.47;;;11.86;100.00
35553;BME280;21656;46.054;13.614;2022-10-16T06:53:00;101287.00;;;11.93;100.00
35553;BME280;21656;46.054;13.614;2022-10-16T06:55:26;101297.34;;;11.99;100.00
35553;BME280;21656;46.054;13.614;2022-10-16T06:57:51;101300.53;;;12.17;100.00
35553;BME280;21656;46.054;13.614;2022-10-16T07:00:16;101296.50;;;12.23;100.00
35553;BME280;21656;46.054;13.614;2022-10-16T07:02:42;101305.41;;;12.12;100.00
35553;BME280;21656;46.054;13.614;2022-10-16T07:05:07;101308.19;;;12.23;100.00
35553;BME280;21656;46.054;13.614;2022-10-16T07:07:33;101317.69;;;12.29;100.00
35553;BME280;21656;46.054;13.614;2022-10-16T07:09:58;101320.19;;;12.19;100.00
35553;BME280;21656;46.054;13.614;2022-10-16T07:12:24;101324.34;;;12.36;100.00
35553;BME280;21656;46.054;13.614;2022-10-16T07:14:49;101328.66;;;12.39;100.00
35553;BME280;21656;46.054;13.614;2022-10-16T07:17:17;101334.41;;;12.34;100.00
35553;BME280;21656;46.054;13.614;2022-10-16T07:19:42;101327.44;;;12.43;100.00
35553;BME280;21656;46.054;13.614;2022-10-16T07:22:08;101342.31;;;12.61;100.00
35553;BME280;21656;46.054;13.614;2022-10-16T07:24:33;101333.91;;;12.77;100.00
35553;BME280;21656;46.054;13.614;2022-10-16T07:26:58;101339.69;;;12.84;100.00
35553;BME280;21656;46.054;13.614;2022-10-16T07:29:24;101348.97;;;12.92;100.00
35553;BME280;21656;46.054;13.614;2022-10-16T07:31:49;101342.72;;;13.03;100.00
35553;BME280;21656;46.054;13.614;2022-10-16T07:34:16;101353.91;;;12.98;100.00
35553;BME280;21656;46.054;13.614;2022-10-16T07:36:42;101354.88;;;12.97;100.00
35553;BME280;21656;46.054;13.614;2022-10-16T07:39:08;101346.09;;;13.07;100.00
35553;BME280;21656;46.054;13.614;2022-10-16T07:41:33;101353.22;;;13.19;100.00
35553;BME280;21656;46.054;13.614;2022-10-16T07:44:02;101361.47;;;13.17;100.00
35553;BME280;21656;46.054;13.614;2022-10-16T07:46:29;101363.69;;;13.23;100.00
35553;BME280;21656;46.054;13.614;2022-10-16T07:48:55;101355.72;;;13.22;100.00
35553;BME280;21656;46.054;13.614;2022-10-16T07:51:23;101358.97;;;13.38;100.00
35553;BME280;21656;46.054;13.614;2022-10-16T07:53:49;101361.44;;;13.30;100.00
35553;BME280;21656;46.054;13.614;2022-10-16T07:56:17;101365.97;;;13.30;100.00
35553;BME280;21656;46.054;13.614;2022-10-16T07:58:43;101360.78;;;13.27;100.00
35553;BME280;21656;46.054;13.614;2022-10-16T08:01:11;101353.94;;;13.34;100.00
35553;BME280;21656;46.054;13.614;2022-10-16T08:03:38;101355.09;;;13.54;100.00
35553;BME280;21656;46.054;13.614;2022-10-16T08:06:04;101364.84;;;13.68;100.00
35553;BME280;21656;46.054;13.614;2022-10-16T08:08:31;101356.59;;;13.80;100.00
35553;BME280;21656;46.054;13.614;2022-10-16T08:10:56;101357.97;;;13.86;100.00
35553;BME280;21656;46.054;13.614;2022-10-16T08:13:22;101361.06;;;13.93;100.00
35553;BME280;21656;46.054;13.614;2022-10-16T08:15:48;101367.69;;;13.88;100.00
35553;BME280;21656;46.054;13.614;2022-10-16T08:18:14;101371.88;;;13.93;100.00
35553;BME280;21656;46.054;13.614;2022-10-16T08:20:40;101371.75;;;13.83;100.00
35553;BME280;21656;46.054;13.614;2022-10-16T08:23:06;101372.09;;;13.90;100.00
35553;BME280;21656;46.054;13.614;2022-10-16T08:25:34;101372.72;;;14.04;100.00
35553;BME280;21656;46.054;13.614;2022-10-16T08:28:00;101371.84;;;14.15;100.00
35553;BME280;21656;46.054;13.614;2022-10-16T08:30:25;101375.53;;;14.25;100.00
35553;BME280;21656;46.054;13.614;2022-10-16T08:32:52;101369.28;;;14.36;100.00
35553;BME280;21656;46.054;13.614;2022-10-16T08:35:18;101372.47;;;14.41;100.00
35553;BME280;21656;46.054;13.614;2022-10-16T08:37:43;101368.38;;;14.47;100.00
35553;BME280;21656;46.054;13.614;2022-10-16T08:40:32;101373.94;;;14.57;100.00
35553;BME280;21656;46.054;13.614;2022-10-16T08:51:07;101379.22;;;14.58;100.00
35553;BME280;21656;46.054;13.614;2022-10-16T08:56:54;101381.34;;;14.55;100.00
35553;BME280;21656;46.054;13.614;2022-10-16T08:59:21;101385.75;;;14.56;100.00
35553;BME280;21656;46.054;13.614;2022-10-16T09:01:49;101383.03;;;14.56;100.00
35553;BME280;21656;46.054;13.614;2022-10-16T09:13:29;101381.44;;;15.08;100.00
35553;BME280;21656;46.054;13.614;2022-10-16T09:16:09;101383.88;;;15.11;100.00
35553;BME280;21656;46.054;13.614;2022-10-16T09:18:43;101388.19;;;15.13;100.00
35553;BME280;21656;46.054;13.614;2022-10-16T09:21:25;101381.72;;;15.26;100.00
35553;BME280;21656;46.054;13.614;2022-10-16T09:23:56;101377.88;;;15.28;100.00
35553;BME280;21656;46.054;13.614;2022-10-16T09:26:23;101380.00;;;15.25;100.00
35553;BME280;21656;46.054;13.614;2022-10-16T09:28:52;101377.84;;;15.39;100.00
35553;BME280;21656;46.054;13.614;2022-10-16T09:31:20;101380.53;;;15.39;100.00
35553;BME280;21656;46.054;13.614;2022-10-16T09:33:57;101375.13;;;15.39;100.00
35553;BME280;21656;46.054;13.614;2022-10-16T09:36:27;101379.41;;;15.42;100.00
35553;BME280;21656;46.054;13.614;2022-10-16T09:39:04;101378.69;;;15.61;100.00
35553;BME280;21656;46.054;13.614;2022-10-16T09:41:35;101372.09;;;15.75;100.00
35553;BME280;21656;46.054;13.614;2022-10-16T09:44:04;101381.63;;;15.90;100.00
35553;BME280;21656;46.054;13.614;2022-10-16T09:46:35;101383.38;;;16.01;100.00
35553;BME280;21656;46.054;13.614;2022-10-16T09:49:04;101370.81;;;16.10;100.00
35553;BME280;21656;46.054;13.614;2022-10-16T09:51:36;101379.28;;;16.16;100.00
35553;BME280;21656;46.054;13.614;2022-10-16T09:54:14;101378.59;;;16.24;100.00
35553;BME280;21656;46.054;13.614;2022-10-16T09:56:40;101379.00;;;16.19;100.00
35553;BME280;21656;46.054;13.614;2022-10-16T09:59:15;101370.50;;;16.34;100.00
35553;BME280;21656;46.054;13.614;2022-10-16T10:01:51;101369.06;;;16.39;100.00
35553;BME280;21656;46.054;13.614;2022-10-16T10:04:19;101372.34;;;16.43;99.79
35553;BME280;21656;46.054;13.614;2022-10-16T10:06:48;101373.53;;;16.50;98.32
35553;BME280;21656;46.054;13.614;2022-10-16T10:09:21;101367.97;;;16.52;97.32
35553;BME280;21656;46.054;13.614;2022-10-16T10:12:02;101361.50;;;16.53;97.51
35553;BME280;21656;46.054;13.614;2022-10-16T10:19:41;101356.75;;;16.95;97.16
35553;BME280;21656;46.054;13.614;2022-10-16T10:22:30;101358.75;;;17.13;97.48
35553;BME280;21656;46.054;13.614;2022-10-16T10:30:52;101333.03;;;17.64;93.61
35553;BME280;21656;46.054;13.614;2022-10-16T10:39:27;101330.78;;;17.96;92.81
35553;BME280;21656;46.054;13.614;2022-10-16T10:45:11;101319.75;;;18.26;91.97
35553;BME280;21656;46.054;13.614;2022-10-16T10:47:52;101315.34;;;18.42;92.66
35553;BME280;21656;46.054;13.614;2022-10-16T10:50:33;101316.84;;;18.55;92.11
35553;BME280;21656;46.054;13.614;2022-10-16T10:59:28;101309.09;;;18.78;87.88
35553;BME280;21656;46.054;13.614;2022-10-16T11:07:24;101302.56;;;19.33;86.49
35553;BME280;21656;46.054;13.614;2022-10-16T11:09:55;101296.72;;;19.54;86.70
35553;BME280;21656;46.054;13.614;2022-10-16T11:12:36;101295.69;;;19.73;85.61
35553;BME280;21656;46.054;13.614;2022-10-16T11:15:18;101291.69;;;19.93;82.80
35553;BME280;21656;46.054;13.614;2022-10-16T11:17:53;101289.47;;;19.97;82.64
35553;BME280;21656;46.054;13.614;2022-10-16T11:21:00;101279.28;;;20.07;83.38
35553;BME280;21656;46.054;13.614;2022-10-16T11:26:23;101271.03;;;20.49;83.44
35553;BME280;21656;46.054;13.614;2022-10-16T11:28:56;101270.91;;;20.67;82.65
35553;BME280;21656;46.054;13.614;2022-10-16T11:39:22;101268.03;;;21.10;76.57
35553;BME280;21656;46.054;13.614;2022-10-16T11:41:50;101261.50;;;21.27;74.35
35553;BME280;21656;46.054;13.614;2022-10-16T11:47:19;101267.94;;;21.67;74.77
35553;BME280;21656;46.054;13.614;2022-10-16T11:49:50;101274.78;;;21.71;72.68
35553;BME280;21656;46.054;13.614;2022-10-16T11:55:04;101282.84;;;21.73;71.36
35553;BME280;21656;46.054;13.614;2022-10-16T11:57:40;101273.81;;;21.48;69.75
35553;BME280;21656;46.054;13.614;2022-10-16T12:00:29;101268.84;;;21.51;70.86
35553;BME280;21656;46.054;13.614;2022-10-16T12:08:14;101264.22;;;21.60;69.14
35553;BME280;21656;46.054;13.614;2022-10-16T12:10:43;101265.25;;;21.34;69.74
35553;BME280;21656;46.054;13.614;2022-10-16T12:13:31;101267.13;;;21.34;70.19
35553;BME280;21656;46.054;13.614;2022-10-16T12:18:44;101278.78;;;21.36;71.44
35553;BME280;21656;46.054;13.614;2022-10-16T12:21:11;101269.56;;;21.12;71.85
35553;BME280;21656;46.054;13.614;2022-10-16T12:23:50;101279.34;;;21.07;71.08
35553;BME280;21656;46.054;13.614;2022-10-16T12:26:26;101280.84;;;21.01;72.28
35553;BME280;21656;46.054;13.614;2022-10-16T12:28:54;101285.31;;;21.10;71.55
35553;BME280;21656;46.054;13.614;2022-10-16T12:31:20;101274.69;;;21.24;71.48
35553;BME280;21656;46.054;13.614;2022-10-16T12:34:22;101276.75;;;21.13;73.57
35553;BME280;21656;46.054;13.614;2022-10-16T12:36:49;101279.16;;;21.00;73.09
35553;BME280;21656;46.054;13.614;2022-10-16T12:39:22;101283.59;;;20.93;72.79
35553;BME280;21656;46.054;13.614;2022-10-16T12:42:00;101277.63;;;20.89;74.47
35553;BME280;21656;46.054;13.614;2022-10-16T12:44:32;101284.44;;;20.85;75.33
35553;BME280;21656;46.054;13.614;2022-10-16T12:46:58;101295.03;;;20.88;75.21
35553;BME280;21656;46.054;13.614;2022-10-16T12:49:32;101285.13;;;20.79;73.88
35553;BME280;21656;46.054;13.614;2022-10-16T12:51:58;101291.13;;;20.83;75.18
35553;BME280;21656;46.054;13.614;2022-10-16T12:59:50;101295.38;;;20.69;75.67
35553;BME280;21656;46.054;13.614;2022-10-16T13:02:45;101293.16;;;20.64;76.29
35553;BME280;21656;46.054;13.614;2022-10-16T13:27:46;101302.06;;;21.15;73.37
35553;BME280;21656;46.054;13.614;2022-10-16T13:30:26;101304.66;;;21.25;73.63
35553;BME280;21656;46.054;13.614;2022-10-16T13:33:03;101309.06;;;21.34;72.09
35553;BME280;21656;46.054;13.614;2022-10-16T13:35:32;101302.38;;;21.37;72.26
35553;BME280;21656;46.054;13.614;2022-10-16T13:38:15;101303.78;;;21.49;72.54
35553;BME280;21656;46.054;13.614;2022-10-16T13:41:01;101297.97;;;21.52;70.65
35553;BME280;21656;46.054;13.614;2022-10-16T13:46:03;101307.56;;;21.48;70.35
35553;BME280;21656;46.054;13.614;2022-10-16T13:48:31;101304.47;;;21.43;71.02
35553;BME280;21656;46.054;13.614;2022-10-16T13:51:12;101297.28;;;21.42;72.29
35553;BME280;21656;46.054;13.614;2022-10-16T13:53:39;101307.88;;;21.53;73.29
35553;BME280;21656;46.054;13.614;2022-10-16T13:56:11;101310.63;;;21.53;71.96
35553;BME280;21656;46.054;13.614;2022-10-16T13:58:38;101307.56;;;21.48;70.36
35553;BME280;21656;46.054;13.614;2022-10-16T14:01:27;101305.66;;;21.32;70.04
35553;BME280;21656;46.054;13.614;2022-10-16T14:03:52;101305.50;;;21.26;72.63
35553;BME280;21656;46.054;13.614;2022-10-16T14:06:20;101300.34;;;21.31;72.86
35553;BME280;21656;46.054;13.614;2022-10-16T14:09:06;101310.63;;;21.29;71.03
35553;BME280;21656;46.054;13.614;2022-10-16T14:11:33;101303.63;;;21.18;70.47
35553;BME280;21656;46.054;13.614;2022-10-16T14:14:02;101301.91;;;21.25;71.46
35553;BME280;21656;46.054;13.614;2022-10-16T14:16:30;101292.28;;;21.29;71.21
35553;BME280;21656;46.054;13.614;2022-10-16T14:19:05;101297.13;;;21.27;71.68
35553;BME280;21656;46.054;13.614;2022-10-16T14:21:32;101299.16;;;21.25;71.25
35553;BME280;21656;46.054;13.614;2022-10-16T14:23:59;101296.94;;;21.29;71.24
35553;BME280;21656;46.054;13.614;2022-10-16T14:26:44;101301.22;;;21.15;71.07
35553;BME280;21656;46.054;13.614;2022-10-16T14:29:13;101303.09;;;21.06;71.13
35553;BME280;21656;46.054;13.614;2022-10-16T14:31:40;101303.63;;;21.02;72.34
35553;BME280;21656;46.054;13.614;2022-10-16T14:34:28;101310.47;;;20.89;71.30
35553;BME280;21656;46.054;13.614;2022-10-16T14:36:56;101307.19;;;20.86;72.89
35553;BME280;21656;46.054;13.614;2022-10-16T14:39:25;101313.69;;;20.85;73.10
35553;BME280;21656;46.054;13.614;2022-10-16T14:41:55;101313.34;;;20.80;74.76
35553;BME280;21656;46.054;13.614;2022-10-16T14:44:28;101316.75;;;20.73;77.44
35553;BME280;21656;46.054;13.614;2022-10-16T14:46:55;101310.56;;;20.63;77.98
35553;BME280;21656;46.054;13.614;2022-10-16T14:49:21;101317.94;;;20.54;76.57
35553;BME280;21656;46.054;13.614;2022-10-16T14:51:48;101312.22;;;20.48;80.16
35553;BME280;21656;46.054;13.614;2022-10-16T14:54:15;101310.97;;;20.26;82.96
35553;BME280;21656;46.054;13.614;2022-10-16T14:56:52;101311.25;;;20.14;85.45
35553;BME280;21656;46.054;13.614;2022-10-16T14:59:36;101315.47;;;20.01;86.85
35553;BME280;21656;46.054;13.614;2022-10-16T15:02:25;101321.56;;;19.86;88.58
35553;BME280;21656;46.054;13.614;2022-10-16T15:04:52;101319.78;;;19.77;90.75
35553;BME280;21656;46.054;13.614;2022-10-16T15:07:17;101332.44;;;19.78;90.99
35553;BME280;21656;46.054;13.614;2022-10-16T15:09:43;101326.25;;;19.68;89.47
35553;BME280;21656;46.054;13.614;2022-10-16T15:12:08;101332.16;;;19.63;89.95
35553;BME280;21656;46.054;13.614;2022-10-16T15:14:34;101333.81;;;19.56;91.42
35553;BME280;21656;46.054;13.614;2022-10-16T15:16:59;101331.50;;;19.43;92.12
35553;BME280;21656;46.054;13.614;2022-10-16T15:19:25;101328.75;;;19.43;93.51
35553;BME280;21656;46.054;13.614;2022-10-16T15:21:50;101335.81;;;19.28;94.96
35553;BME280;21656;46.054;13.614;2022-10-16T15:24:17;101338.16;;;19.23;95.83
35553;BME280;21656;46.054;13.614;2022-10-16T15:26:43;101334.25;;;19.25;96.05
35553;BME280;21656;46.054;13.614;2022-10-16T15:29:11;101336.53;;;19.12;96.50
35553;BME280;21656;46.054;13.614;2022-10-16T15:31:37;101340.66;;;19.16;97.08
35553;BME280;21656;46.054;13.614;2022-10-16T15:34:02;101341.91;;;19.04;97.93
35553;BME280;21656;46.054;13.614;2022-10-16T15:36:31;101340.66;;;18.98;98.12
35553;BME280;21656;46.054;13.614;2022-10-16T15:38:59;101342.63;;;18.88;98.95
35553;BME280;21656;46.054;13.614;2022-10-16T15:41:25;101348.22;;;18.69;100.00
35553;BME280;21656;46.054;13.614;2022-10-16T15:43:51;101352.16;;;18.56;100.00
35553;BME280;21656;46.054;13.614;2022-10-16T15:46:21;101345.28;;;18.52;100.00
35553;BME280;21656;46.054;13.614;2022-10-16T15:48:48;101342.28;;;18.46;100.00
35553;BME280;21656;46.054;13.614;2022-10-16T15:51:15;101350.97;;;18.41;100.00
35553;BME280;21656;46.054;13.614;2022-10-16T15:53:41;101349.75;;;18.26;100.00
35553;BME280;21656;46.054;13.614;2022-10-16T15:56:08;101355.34;;;18.24;100.00
35553;BME280;21656;46.054;13.614;2022-10-16T15:58:34;101358.81;;;18.16;100.00
35553;BME280;21656;46.054;13.614;2022-10-16T16:01:00;101351.66;;;18.15;100.00
35553;BME280;21656;46.054;13.614;2022-10-16T16:03:27;101355.59;;;18.03;100.00
35553;BME280;21656;46.054;13.614;2022-10-16T16:05:53;101363.59;;;18.05;100.00
35553;BME280;21656;46.054;13.614;2022-10-16T16:08:19;101360.63;;;17.98;100.00
35553;BME280;21656;46.054;13.614;2022-10-16T16:10:44;101362.38;;;17.89;100.00
35553;BME280;21656;46.054;13.614;2022-10-16T16:13:10;101366.56;;;17.84;100.00
35553;BME280;21656;46.054;13.614;2022-10-16T16:15:38;101370.69;;;17.78;100.00
35553;BME280;21656;46.054;13.614;2022-10-16T16:18:03;101376.59;;;17.73;100.00
35553;BME280;21656;46.054;13.614;2022-10-16T16:20:31;101375.16;;;17.69;100.00
35553;BME280;21656;46.054;13.614;2022-10-16T16:22:57;101376.31;;;17.57;100.00
35553;BME280;21656;46.054;13.614;2022-10-16T16:25:23;101379.50;;;17.52;100.00
35553;BME280;21656;46.054;13.614;2022-10-16T16:27:49;101380.22;;;17.45;100.00
35553;BME280;21656;46.054;13.614;2022-10-16T16:30:14;101378.78;;;17.31;100.00
35553;BME280;21656;46.054;13.614;2022-10-16T16:32:42;101380.66;;;17.21;100.00
35553;BME280;21656;46.054;13.614;2022-10-16T16:35:09;101380.53;;;17.13;100.00
35553;BME280;21656;46.054;13.614;2022-10-16T16:37:36;101386.81;;;17.13;100.00
35553;BME280;21656;46.054;13.614;2022-10-16T16:40:02;101388.56;;;17.04;100.00
35553;BME280;21656;46.054;13.614;2022-10-16T16:42:28;101385.53;;;16.98;100.00
35553;BME280;21656;46.054;13.614;2022-10-16T16:44:54;101392.09;;;16.85;100.00
35553;BME280;21656;46.054;13.614;2022-10-16T16:47:19;101401.28;;;16.84;100.00
35553;BME280;21656;46.054;13.614;2022-10-16T16:49:45;101413.13;;;16.83;100.00
35553;BME280;21656;46.054;13.614;2022-10-16T16:52:12;101415.53;;;16.77;100.00
35553;BME280;21656;46.054;13.614;2022-10-16T16:54:38;101417.41;;;16.76;100.00
35553;BME280;21656;46.054;13.614;2022-10-16T16:57:03;101422.41;;;16.71;100.00
35553;BME280;21656;46.054;13.614;2022-10-16T16:59:29;101423.97;;;16.64;100.00
35553;BME280;21656;46.054;13.614;2022-10-16T17:01:58;101431.66;;;16.59;100.00
35553;BME280;21656;46.054;13.614;2022-10-16T17:04:24;101432.94;;;16.55;100.00
35553;BME280;21656;46.054;13.614;2022-10-16T17:06:52;101427.38;;;16.56;100.00
35553;BME280;21656;46.054;13.614;2022-10-16T17:09:18;101440.53;;;16.51;100.00
35553;BME280;21656;46.054;13.614;2022-10-16T17:11:44;101444.16;;;16.40;100.00
35553;BME280;21656;46.054;13.614;2022-10-16T17:14:11;101449.44;;;16.32;100.00
35553;BME280;21656;46.054;13.614;2022-10-16T17:16:37;101447.97;;;16.18;100.00
35553;BME280;21656;46.054;13.614;2022-10-16T17:19:06;101454.13;;;16.20;100.00
35553;BME280;21656;46.054;13.614;2022-10-16T17:21:33;101456.97;;;16.19;100.00
35553;BME280;21656;46.054;13.614;2022-10-16T17:23:59;101468.09;;;16.16;100.00
35553;BME280;21656;46.054;13.614;2022-10-16T17:26:28;101470.03;;;16.04;100.00
35553;BME280;21656;46.054;13.614;2022-10-16T17:28:56;101472.69;;;15.94;100.00
35553;BME280;21656;46.054;13.614;2022-10-16T17:31:25;101477.50;;;15.70;100.00
35553;BME280;21656;46.054;13.614;2022-10-16T17:33:51;101479.44;;;15.47;100.00
35553;BME280;21656;46.054;13.614;2022-10-16T17:36:18;101485.19;;;15.32;100.00
35553;BME280;21656;46.054;13.614;2022-10-16T17:38:45;101490.00;;;15.29;100.00
35553;BME280;21656;46.054;13.614;2022-10-16T17:41:12;101489.28;;;15.27;100.00
35553;BME280;21656;46.054;13.614;2022-10-16T17:43:39;101494.13;;;15.12;100.00
35553;BME280;21656;46.054;13.614;2022-10-16T17:46:06;101491.56;;;14.99;100.00
35553;BME280;21656;46.054;13.614;2022-10-16T17:48:31;101490.59;;;14.89;100.00
35553;BME280;21656;46.054;13.614;2022-10-16T17:51:03;101504.88;;;15.02;100.00
35553;BME280;21656;46.054;13.614;2022-10-16T17:53:29;101508.69;;;15.00;100.00
35553;BME280;21656;46.054;13.614;2022-10-16T17:55:54;101512.50;;;15.08;100.00
35553;BME280;21656;46.054;13.614;2022-10-16T17:58:23;101505.69;;;15.14;100.00
35553;BME280;21656;46.054;13.614;2022-10-16T18:00:50;101514.94;;;15.11;100.00
35553;BME280;21656;46.054;13.614;2022-10-16T18:03:16;101525.41;;;15.16;100.00
35553;BME280;21656;46.054;13.614;2022-10-16T18:05:41;101516.16;;;15.18;100.00
35553;BME280;21656;46.054;13.614;2022-10-16T18:08:06;101516.66;;;15.24;100.00
35553;BME280;21656;46.054;13.614;2022-10-16T18:10:32;101524.69;;;15.14;100.00
35553;BME280;21656;46.054;13.614;2022-10-16T18:12:57;101528.19;;;14.82;100.00
35553;BME280;21656;46.054;13.614;2022-10-16T18:15:23;101528.94;;;14.62;100.00
35553;BME280;21656;46.054;13.614;2022-10-16T18:17:48;101537.69;;;14.77;100.00
35553;BME280;21656;46.054;13.614;2022-10-16T18:20:14;101543.97;;;14.77;100.00
35553;BME280;21656;46.054;13.614;2022-10-16T18:22:40;101543.47;;;14.83;100.00
35553;BME280;21656;46.054;13.614;2022-10-16T18:25:07;101541.00;;;14.91;100.00
35553;BME280;21656;46.054;13.614;2022-10-16T18:27:33;101540.63;;;14.96;100.00
35553;BME280;21656;46.054;13.614;2022-10-16T18:29:59;101543.97;;;15.00;100.00
35553;BME280;21656;46.054;13.614;2022-10-16T18:32:25;101546.44;;;14.80;100.00
35553;BME280;21656;46.054;13.614;2022-10-16T18:34:51;101546.44;;;14.69;100.00
35553;BME280;21656;46.054;13.614;2022-10-16T18:37:18;101548.16;;;14.59;100.00
35553;BME280;21656;46.054;13.614;2022-10-16T18:39:47;101555.03;;;14.51;100.00
35553;BME280;21656;46.054;13.614;2022-10-16T18:42:17;101545.16;;;14.50;100.00
35553;BME280;21656;46.054;13.614;2022-10-16T18:44:42;101552.22;;;14.64;100.00
35553;BME280;21656;46.054;13.614;2022-10-16T18:47:07;101560.22;;;14.66;100.00
35553;BME280;21656;46.054;13.614;2022-10-16T18:49:33;101553.09;;;14.54;100.00
35553;BME280;21656;46.054;13.614;2022-10-16T18:51:59;101566.84;;;14.50;100.00
35553;BME280;21656;46.054;13.614;2022-10-16T18:54:28;101568.50;;;14.64;100.00
35553;BME280;21656;46.054;13.614;2022-10-16T18:56:53;101566.78;;;14.74;100.00
35553;BME280;21656;46.054;13.614;2022-10-16T18:59:19;101568.25;;;14.79;100.00
35553;BME280;21656;46.054;13.614;2022-10-16T19:01:45;101567.25;;;14.80;100.00
35553;BME280;21656;46.054;13.614;2022-10-16T19:04:13;101574.66;;;14.78;100.00
35553;BME280;21656;46.054;13.614;2022-10-16T19:06:45;101572.56;;;14.59;100.00
35553;BME280;21656;46.054;13.614;2022-10-16T19:09:13;101578.50;;;14.28;100.00
35553;BME280;21656;46.054;13.614;2022-10-16T19:11:39;101575.44;;;14.33;100.00
35553;BME280;21656;46.054;13.614;2022-10-16T19:14:05;101578.03;;;14.35;100.00
35553;BME280;21656;46.054;13.614;2022-10-16T19:16:33;101581.38;;;14.38;100.00
35553;BME280;21656;46.054;13.614;2022-10-16T19:19:01;101586.41;;;14.43;100.00
35553;BME280;21656;46.054;13.614;2022-10-16T19:21:28;101592.13;;;14.51;100.00
35553;BME280;21656;46.054;13.614;2022-10-16T19:23:56;101592.75;;;14.55;100.00
35553;BME280;21656;46.054;13.614;2022-10-16T19:26:23;101591.28;;;14.62;100.00
35553;BME280;21656;46.054;13.614;2022-10-16T19:28:49;101602.00;;;14.63;100.00
35553;BME280;21656;46.054;13.614;2022-10-16T19:31:19;101594.59;;;14.54;100.00
35553;BME280;21656;46.054;13.614;2022-10-16T19:33:45;101590.72;;;14.34;100.00
35553;BME280;21656;46.054;13.614;2022-10-16T19:36:19;101593.44;;;14.34;100.00
35553;BME280;21656;46.054;13.614;2022-10-16T19:38:51;101591.72;;;14.33;100.00
35553;BME280;21656;46.054;13.614;2022-10-16T19:41:18;101600.56;;;14.35;100.00
35553;BME280;21656;46.054;13.614;2022-10-16T19:43:45;101598.53;;;14.15;100.00
35553;BME280;21656;46.054;13.614;2022-10-16T19:46:22;101612.88;;;13.93;100.00
35553;BME280;21656;46.054;13.614;2022-10-16T19:48:53;101616.19;;;13.96;100.00
35553;BME280;21656;46.054;13.614;2022-10-16T19:51:19;101619.22;;;13.80;100.00
35553;BME280;21656;46.054;13.614;2022-10-16T19:53:51;101621.84;;;13.93;100.00
35553;BME280;21656;46.054;13.614;2022-10-16T19:56:20;101625.19;;;13.97;100.00
35553;BME280;21656;46.054;13.614;2022-10-16T19:58:47;101626.69;;;14.01;100.00
35553;BME280;21656;46.054;13.614;2022-10-16T20:01:14;101629.31;;;13.90;100.00
35553;BME280;21656;46.054;13.614;2022-10-16T20:03:41;101628.63;;;13.75;100.00
35553;BME280;21656;46.054;13.614;2022-10-16T20:06:08;101640.44;;;13.50;100.00
35553;BME280;21656;46.054;13.614;2022-10-16T20:08:34;101641.44;;;13.36;100.00
35553;BME280;21656;46.054;13.614;2022-10-16T20:11:01;101641.25;;;13.63;100.00
35553;BME280;21656;46.054;13.614;2022-10-16T20:13:27;101648.16;;;13.67;100.00
35553;BME280;21656;46.054;13.614;2022-10-16T20:15:53;101650.75;;;13.69;100.00
35553;BME280;21656;46.054;13.614;2022-10-16T20:18:18;101650.94;;;13.78;100.00
35553;BME280;21656;46.054;13.614;2022-10-16T20:20:46;101651.56;;;13.82;100.00
35553;BME280;21656;46.054;13.614;2022-10-16T20:23:13;101654.06;;;13.85;100.00
35553;BME280;21656;46.054;13.614;2022-10-16T20:25:40;101650.19;;;13.76;100.00
35553;BME280;21656;46.054;13.614;2022-10-16T20:28:08;101657.28;;;13.66;100.00
35553;BME280;21656;46.054;13.614;2022-10-16T20:30:40;101663.28;;;13.46;100.00
35553;BME280;21656;46.054;13.614;2022-10-16T20:33:07;101661.00;;;13.52;100.00
35553;BME280;21656;46.054;13.614;2022-10-16T20:35:45;101659.81;;;13.80;100.00
35553;BME280;21656;46.054;13.614;2022-10-16T20:38:12;101663.06;;;13.85;100.00
35553;BME280;21656;46.054;13.614;2022-10-16T20:40:42;101668.75;;;13.94;100.00
35553;BME280;21656;46.054;13.614;2022-10-16T20:43:16;101667.59;;;13.85;100.00
35553;BME280;21656;46.054;13.614;2022-10-16T20:45:43;101673.22;;;13.58;100.00
35553;BME280;21656;46.054;13.614;2022-10-16T20:48:09;101672.53;;;13.30;100.00
35553;BME280;21656;46.054;13.614;2022-10-16T20:50:39;101681.41;;;13.32;100.00
35553;BME280;21656;46.054;13.614;2022-10-16T20:53:04;101674.00;;;13.47;100.00
35553;BME280;21656;46.054;13.614;2022-10-16T20:55:30;101678.22;;;13.51;100.00
35553;BME280;21656;46.054;13.614;2022-10-16T20:57:58;101683.31;;;13.43;100.00
35553;BME280;21656;46.054;13.614;2022-10-16T21:00:24;101688.28;;;13.49;100.00
35553;BME280;21656;46.054;13.614;2022-10-16T21:02:49;101687.38;;;13.61;100.00